| Record Date MM/DD/YYYY | Record Julian Date NNN day of the year | Air Temperature Max (Degrees Fahrenheit F) | Time Max Air Temperature HH:MM:SS This is the time of max air temperature standard time. | Air Temperature Min (Degrees Fahrenheit F) | Time Min Air Temperature HH:MM:SS This is the time of min air temperature standard time. | Air Temperature Observed (Degrees Fahrenheit F) This is an instantaneous reading for air temperature at 7:00:00 standard time. | Relative Humidity Max (Percent) | Time Max Relative Humidity HH:MM:SS This is the time of max relative humidity standard time. | Relative Humidity Min (Percent) | Time Min Relative Humidity HH:MM:SS This is the time of min relative humidity standard time. | Relative Humidity Observed (Percent) This is an instantaneous reading at 7:00:00 standard time. | Precipitation (Inches n.nn) total rain fall that occurred for the day. | Pan Evaporation (Inches n.nn) total evaporation that occured for the day. | Wind Run (Miles) Wind travel for the day. | Wind Speed (Miles Per Hour) Resultant / Average speed for the day. | Wind Direction (Degrees) Resultant Direction for the day | Solar Radiation (Langley's) that occurred for the day. | Soil Temperature Max at 2 inch depth (Degrees Fahrenheit F) that occurred during the day. | Time Max Soil temperature at 2 inches HH:MM:SS This is the time of max 2 inch soil temperature standard time. | Soil Temperature Min at 2 inch depth (Degrees Fahrenheit F) that occurred during the day. | Time Min Soil temperature at 2 inches HH:MM:SS This is the time of min 2 inch soil temperature standard time. | Soil Temperature Observed at 2 inch depth (Degrees Fahrenheit F) This is an instantaneous reading 2 inch soil temperature at 7:00:00 standard time. | Soil Temperature Max at 4 inch depth (Degrees Fahrenheit F) that occurred during the day. | Time Max Soil temperature at 4 inches HH:MM:SS This is the time of max 4 inch soil temperature standard time. | Soil Temperature Min at 4 inch depth (Degrees Fahrenheit F) that occurred during the day. | Time Min Soil temperature at 4 inches HH:MM:SS This is the time of min 4 inch soil temperature standard time. | Soil Temperature Observed at 4 inch depth (Degrees Fahrenheit F) This is an instantaneous reading 4 inch soil temperature at 7:00:00 standard time. | DD50 Degree Days 50 Fahrenheit. | Adjusted DD50 Degree Days 50 Fahrenheit adjusted for latitude. | DD60 Degree Days 60 Fahrenheit. |
|---|---|---|---|---|---|---|---|---|---|---|---|---|---|---|---|---|---|---|---|---|---|---|---|---|---|---|---|---|---|---|
| 08/06/2026 | 218 | 99 | 14:30:00 | 70 | 3:46:03 | 76 | 92 | 6:22:01 | 47 | 13:05:05 | 86 | 0 | 50 | 2.1 | 173 | 543 | 92 | 14:59:00 | 81 | 5:55:03 | 81 | 91 | 15:44:00 | 82 | 6:37:00 | 82 | 34.5 | 26.99 | 24.5 | |
| 08/07/2026 | 219 | 91 | 15:57:01 | 71 | 4:22:03 | 78 | 94 | 5:09:05 | 59 | 17:50:03 | 86 | 0.52 | 42 | 1.8 | 144 | 372 | 88 | 16:10:04 | 82 | 5:45:02 | 82 | 87 | 17:05:00 | 83 | 6:48:05 | 83 | 31 | 26.96 | 21 | |
| 08/08/2026 | 220 | 97 | 14:52:00 | 72 | 4:29:04 | 79 | 94 | 6:01:04 | 48 | 15:32:01 | 88 | 0 | 43 | 1.8 | 200 | 571 | 91 | 15:09:04 | 81 | 6:00:03 | 81 | 90 | 15:45:01 | 82 | 6:31:05 | 82 | 34.5 | 26.92 | 24.5 | |
| 08/09/2026 | 221 | 98 | 15:54:05 | 73 | 5:19:03 | 79 | 94 | 5:49:03 | 49 | 13:04:02 | 86 | 0 | 43 | 1.8 | 178 | 582 | 92 | 13:51:01 | 82 | 6:03:02 | 82 | 90 | 16:25:02 | 83 | 6:53:04 | 83 | 35.5 | 26.89 | 25.5 | |
| 08/10/2026 | 222 | 99 | 15:41:01 | 75 | 3:30:04 | 81 | 91 | 6:10:01 | 47 | 15:00:03 | 83 | 0 | 62 | 2.6 | 176 | 560 | 92 | 15:59:00 | 83 | 5:45:03 | 83 | 91 | 16:25:05 | 83 | 6:39:01 | 83 | 37 | 26.86 | 27 | |
| 08/11/2026 | 223 | 97 | 15:03:00 | 74 | 5:05:02 | 80 | 93 | 6:06:04 | 48 | 15:30:00 | 85 | 0 | 80 | 3.3 | 189 | 538 | 91 | 14:20:05 | 83 | 6:15:00 | 83 | 90 | 15:49:00 | 83 | 6:35:03 | 84 | 35.5 | 26.83 | 25.5 | |
| 08/12/2026 | 224 | 99 | 14:58:03 | 75 | 5:30:03 | 82 | 92 | 5:51:03 | 45 | 14:04:00 | 82 | 0 | 93 | 3.9 | 191 | 598 | 92 | 14:30:00 | 83 | 6:14:03 | 83 | 91 | 15:46:04 | 83 | 6:34:04 | 83 | 37 | 26.79 | 27 | |
| 08/13/2026 | 225 | 100 | 14:11:00 | 75 | 5:32:03 | 82 | 93 | 6:06:05 | 48 | 13:40:04 | 84 | 0 | 95 | 4.0 | 201 | 583 | 93 | 14:46:02 | 83 | 6:01:02 | 83 | 92 | 15:27:02 | 84 | 6:43:02 | 84 | 37.5 | 26.76 | 27.5 | |
| 08/14/2026 | 226 | 100 | 14:22:00 | 73 | 22:22:04 | 81 | 92 | 5:51:00 | 39 | 15:15:04 | 84 | 0 | 78 | 3.3 | 193 | 592 | 93 | 14:18:03 | 83 | 5:55:00 | 83 | 92 | 15:22:01 | 84 | 6:45:05 | 84 | 36.5 | 26.73 | 26.5 | |
| 08/15/2026 | 227 | 100 | 13:37:03 | 71 | 0:57:01 | 81 | 91 | 4:56:00 | 41 | 13:59:01 | 81 | 0 | 62 | 2.6 | 195 | 588 | 93 | 14:58:02 | 82 | 5:54:02 | 83 | 92 | 15:42:02 | 83 | 6:40:04 | 83 | 35.5 | 26.69 | 25.5 | |
| 08/16/2026 | 228 | 103 | 14:08:04 | 75 | 3:16:01 | 82 | 89 | 6:02:04 | 42 | 14:53:00 | 81 | 0 | 85 | 3.5 | 204 | 538 | 93 | 14:59:02 | 84 | 5:58:04 | 84 | 92 | 15:47:05 | 85 | 6:50:02 | 85 | 39 | 26.66 | 29 | |
| 08/17/2026 | 229 | 104 | 14:39:01 | 77 | 5:42:04 | 83 | 89 | 5:49:04 | 32 | 13:59:02 | 77 | 0 | 106 | 4.4 | 225 | 588 | 93 | 14:54:01 | 85 | 6:13:03 | 85 | 92 | 15:51:05 | 85 | 6:46:00 | 85 | 40.5 | 26.63 | 30.5 | |
| 08/18/2026 | 230 | 104 | 14:56:03 | 77 | 2:27:00 | 81 | 86 | 2:30:03 | 36 | 16:02:02 | 77 | 0 | 89 | 3.7 | 225 | 531 | 93 | 15:10:01 | 85 | 6:05:03 | 85 | 92 | 15:39:05 | 85 | 6:58:04 | 85 | 40.5 | 26.59 | 30.5 | |
| 08/19/2026 | 231 | 103 | 15:17:00 | 76 | 5:38:05 | 83 | 89 | 5:44:01 | 36 | 15:08:04 | 79 | 0 | 108 | 4.5 | 196 | 600 | 95 | 14:48:03 | 85 | 5:58:03 | 85 | 94 | 15:48:05 | 86 | 6:38:05 | 86 | 39.5 | 26.56 | 29.5 | |
| 08/20/2026 | 232 | 103 | 14:50:05 | 78 | 23:54:05 | 82 | 86 | 5:07:01 | 42 | 14:40:03 | 78 | 0 | 107 | 4.5 | 204 | 552 | 95 | 15:14:03 | 85 | 6:27:05 | 85 | 94 | 15:46:01 | 86 | 7:03:02 | 86 | 40.5 | 26.53 | 30.5 | |
| 08/21/2026 | 233 | 103 | 13:22:03 | 74 | 23:59:05 | 80 | 88 | 23:59:04 | 41 | 13:35:01 | 75 | 0 | 95 | 4.0 | 228 | 495 | 93 | 14:19:05 | 85 | 6:39:03 | 85 | 92 | 14:43:01 | 86 | 7:04:02 | 86 | 38.5 | 26.49 | 28.5 | |
| 08/22/2026 | 234 | 103 | 16:10:04 | 69 | 5:09:01 | 76 | 93 | 6:42:01 | 35 | 16:40:00 | 88 | 0 | 69 | 2.9 | 250 | 570 | 93 | 15:22:00 | 83 | 6:15:03 | 83 | 92 | 16:06:02 | 84 | 6:51:01 | 84 | 36 | 26.46 | 26 | |
| 08/23/2026 | 235 | 99 | 14:29:04 | 75 | 5:27:01 | 77 | 87 | 5:59:00 | 45 | 14:29:04 | 85 | 0 | 64 | 2.7 | 26 | 570 | 93 | 15:06:00 | 84 | 6:45:01 | 84 | 93 | 15:24:01 | 85 | 7:05:05 | 85 | 37 | 26.42 | 27 | |
| 08/24/2026 | 236 | 79 | 17:36:01 | 72 | 8:18:01 | 78 | 96 | 10:56:05 | 81 | 1:37:00 | 84 | 1.27 | 58 | 2.4 | 259 | 96 | 87 | 0:00:00 | 81 | 8:32:05 | 85 | 88 | 0:00:00 | 82 | 23:54:00 | 86 | 25.5 | 25.89 | 15.5 | |
| 08/25/2026 | 237 | 96 | 14:54:03 | 73 | 0:50:04 | 75 | 95 | 6:20:05 | 55 | 15:42:04 | 95 | 0.01 | 49 | 2.0 | 179 | 372 | 89 | 15:20:04 | 80 | 5:51:03 | 80 | 88 | 16:01:02 | 81 | 6:25:05 | 81 | 34.5 | 26.35 | 24.5 | |
| 08/26/2026 | 238 | 100 | 14:18:01 | 74 | 4:25:00 | 78 | 94 | 4:39:05 | 54 | 14:18:02 | 89 | 0 | 93 | 3.9 | 194 | 482 | 91 | 14:34:04 | 81 | 5:58:02 | 82 | 89 | 15:02:02 | 82 | 6:28:01 | 82 | 37 | 26.32 | 27 | |
| 08/27/2026 | 239 | 94 | 14:58:04 | 73 | 4:42:01 | 74 | 92 | 6:53:00 | 50 | 16:10:03 | 92 | 0 | 70 | 2.9 | 352 | 504 | 88 | 14:43:05 | 81 | 6:51:03 | 81 | 88 | 15:27:04 | 82 | 7:30:04 | 82 | 33.5 | 26.29 | 23.5 | |
| 08/28/2026 | 240 | 98 | 13:33:02 | 71 | 23:59:05 | 77 | 94 | 6:44:05 | 39 | 13:33:03 | 92 | 0 | 61 | 2.5 | 6 | 472 | 87 | 13:46:04 | 81 | 6:18:05 | 81 | 87 | 13:55:00 | 82 | 7:03:01 | 82 | 34.5 | 26.25 | 24.5 | |
| 08/29/2026 | 241 | 97 | 16:06:00 | 67 | 5:38:02 | 74 | 89 | 5:46:03 | 33 | 16:06:02 | 80 | 0 | 38 | 1.6 | 42 | 568 | 88 | 15:27:01 | 78 | 6:21:04 | 78 | 87 | 15:48:02 | 80 | 7:05:03 | 80 | 32 | 26.22 | 22 | |
| 08/30/2026 | 242 | 97 | 14:47:00 | 69 | 2:58:04 | 76 | 90 | 3:59:05 | 45 | 14:59:05 | 84 | 0 | 34 | 1.4 | 91 | 511 | 89 | 14:58:03 | 79 | 6:09:03 | 79 | 88 | 15:48:03 | 80 | 6:43:05 | 80 | 33 | 26.18 | 23 | |
| 08/31/2026 | 243 | 99 | 14:12:03 | 72 | 5:48:00 | 79 | 93 | 6:22:05 | 45 | 14:13:05 | 86 | 0 | 28 | 1.2 | 85 | 530 | 91 | 15:24:02 | 81 | 6:07:03 | 81 | 89 | 15:51:03 | 82 | 6:37:03 | 82 | 35.5 | 26.15 | 25.5 | |
| 09/01/2026 | 244 | 99 | 13:42:02 | 73 | 5:28:05 | 78 | 92 | 6:14:01 | 46 | 13:35:05 | 85 | 0 | 42 | 1.7 | 112 | 540 | 91 | 14:47:01 | 82 | 6:24:05 | 82 | 90 | 15:37:04 | 83 | 6:46:01 | 83 | 36 | 26.11 | 26 | |
| 09/02/2026 | 245 | 99 | 15:35:01 | 73 | 5:46:00 | 78 | 94 | 6:16:05 | 47 | 15:14:05 | 89 | 0 | 39 | 1.6 | 116 | 513 | 92 | 15:21:05 | 82 | 6:15:04 | 83 | 91 | 15:53:04 | 83 | 7:08:04 | 83 | 36 | 26.08 | 26 | |
| 09/03/2026 | 246 | 101 | 15:25:01 | 74 | 5:09:03 | 79 | 94 | 6:33:01 | 46 | 15:15:02 | 90 | 0.06 | 55 | 2.3 | 332 | 471 | 92 | 15:34:01 | 83 | 6:04:02 | 83 | 91 | 15:53:04 | 84 | 6:40:04 | 84 | 37.5 | 26.04 | 27.5 | |
| 09/04/2026 | 247 | 94 | 11:15:04 | 73 | 3:28:03 | 76 | 94 | 4:37:04 | 57 | 10:50:05 | 93 | 0.01 | 54 | 2.3 | 175 | 316 | 88 | 11:36:04 | 82 | 5:59:00 | 82 | 87 | 12:04:04 | 83 | 6:50:01 | 83 | 33.5 | 26.01 | 23.5 | |
| Average | 98.5 | 73.13 | 78.83 | 91.67 | 45.93 | 84.8 | 0.06 | 66.4 | 511.53 | 91.27 | 82.33 | 82.57 | 90.33 | 83.2 | 83.37 | 35.82 | 26.49 | 25.82 | ||||||||||||
| Total | 1.87 | 1074.5 | 794.65 | 774.5 |